Time;durP1;ratioP1;P1;durP2;ratioP2;P2;SDS_P1;SDS_P2;PMS_P1;PMS_P2;Temp;Humidity;BMP_temperature;BMP_pressure;BME280_temperature;BME280_humidity;BME280_pressure;Samples;Min_cycle;Max_cycle;Signal;HPM_P1;HPM_P2
2022/03/17 00:00:59;;;;;;;36.87;27.40;;;;;;;;;;5078317;28;20416;-76
2022/03/17 00:03:25;;;;;;;39.40;26.33;;;;;;;;;;5075486;28;20478;-76
2022/03/17 00:05:51;;;;;;;38.67;29.00;;;;;;;;;;5076860;28;20400;-76
2022/03/17 00:08:17;;;;;;;41.57;29.93;;;;;;;;;;5076866;28;20392;-76
2022/03/17 00:10:44;;;;;;;43.60;29.90;;;;;;;;;;5076720;28;20431;-76
2022/03/17 00:13:11;;;;;;;42.17;30.13;;;;;;;;;;5076440;28;20416;-76
2022/03/17 00:15:40;;;;;;;43.40;29.70;;;;;;;;;;5076643;28;20400;-76
2022/03/17 00:18:06;;;;;;;41.10;28.57;;;;;;;;;;5076285;28;20397;-76
2022/03/17 00:20:32;;;;;;;39.53;27.77;;;;;;;;;;5076550;28;20454;-76
2022/03/17 00:22:59;;;;;;;41.00;28.83;;;;;;;;;;5076427;28;20522;-76
2022/03/17 00:25:25;;;;;;;40.63;27.90;;;;;;;;;;5076288;28;20975;-76
2022/03/17 00:27:52;;;;;;;39.67;28.73;;;;;;;;;;5076374;28;20397;-77
2022/03/17 00:30:18;;;;;;;37.70;26.77;;;;;;;;;;5076434;28;20765;-77
2022/03/17 00:32:44;;;;;;;43.53;30.47;;;;;;;;;;5076080;28;20506;-76
2022/03/17 00:37:55;;;;;;;41.20;28.57;;;;;;;;;;5076281;28;20402;-77
2022/03/17 00:40:23;;;;;;;43.20;28.47;;;;;;;;;;5075974;28;20400;-76
2022/03/17 00:42:51;;;;;;;41.47;29.63;;;;;;;;;;5075893;28;20416;-77
2022/03/17 00:45:17;;;;;;;37.50;27.03;;;;;;;;;;5074584;28;20509;-76
2022/03/17 00:47:43;;;;;;;38.63;29.00;;;;;;;;;;5076005;28;20401;-76
2022/03/17 00:50:10;;;;;;;43.07;30.33;;;;;;;;;;5075601;28;20405;-76
2022/03/17 00:52:36;;;;;;;35.70;27.70;;;;;;;;;;5075611;28;20421;-77
2022/03/17 00:55:05;;;;;;;38.87;27.53;;;;;;;;;;5075890;28;20487;-76
2022/03/17 00:57:31;;;;;;;37.83;28.00;;;;;;;;;;5075333;28;20915;-75
2022/03/17 00:59:57;;;;;;;38.90;27.87;;;;;;;;;;5074229;28;20419;-76
2022/03/17 01:02:23;;;;;;;41.07;27.67;;;;;;;;;;5075669;28;20428;-76
2022/03/17 01:04:49;;;;;;;37.93;27.83;;;;;;;;;;5075367;28;20816;-76
2022/03/17 01:07:15;;;;;;;39.20;28.00;;;;;;;;;;5075419;28;20405;-76
2022/03/17 01:09:41;;;;;;;39.10;27.30;;;;;;;;;;5075488;28;20416;-76
2022/03/17 01:12:08;;;;;;;32.20;24.00;;;;;;;;;;5075528;28;20460;-76
2022/03/17 01:14:34;;;;;;;40.03;27.60;;;;;;;;;;5075544;28;20408;-76
2022/03/17 01:17:00;;;;;;;34.47;24.73;;;;;;;;;;5075269;28;20912;-76
2022/03/17 01:19:26;;;;;;;38.20;25.30;;;;;;;;;;5075455;28;20397;-76
2022/03/17 01:21:52;;;;;;;35.70;26.33;;;;;;;;;;5073546;28;20531;-76
2022/03/17 01:24:20;;;;;;;37.63;26.70;;;;;;;;;;5074899;28;20531;-76
2022/03/17 01:26:46;;;;;;;34.70;25.30;;;;;;;;;;5074958;28;20803;-76
2022/03/17 01:29:13;;;;;;;34.57;25.17;;;;;;;;;;5074845;28;20511;-76
2022/03/17 01:31:39;;;;;;;34.70;25.70;;;;;;;;;;5074857;28;20479;-76
2022/03/17 01:34:05;;;;;;;34.83;26.00;;;;;;;;;;5074820;28;20491;-76
2022/03/17 01:36:31;;;;;;;33.10;24.87;;;;;;;;;;5074726;28;20849;-76
2022/03/17 01:38:57;;;;;;;40.53;26.43;;;;;;;;;;5073541;28;20408;-76
2022/03/17 01:41:24;;;;;;;35.90;28.20;;;;;;;;;;5074749;28;20408;-76
2022/03/17 01:43:50;;;;;;;34.10;26.00;;;;;;;;;;5073505;28;20487;-76
2022/03/17 01:46:17;;;;;;;36.80;27.20;;;;;;;;;;5074779;28;20397;-76
2022/03/17 01:48:43;;;;;;;39.97;25.80;;;;;;;;;;5075066;28;20400;-76
2022/03/17 01:51:10;;;;;;;34.83;25.97;;;;;;;;;;5074940;28;20428;-76
2022/03/17 01:53:36;;;;;;;33.60;24.50;;;;;;;;;;5074434;28;20424;-76
2022/03/17 01:56:03;;;;;;;39.03;25.97;;;;;;;;;;5074518;28;20397;-76
2022/03/17 01:58:29;;;;;;;32.83;25.10;;;;;;;;;;5074460;28;20405;-76
2022/03/17 02:00:55;;;;;;;37.23;26.20;;;;;;;;;;5074565;28;20428;-77
2022/03/17 02:03:21;;;;;;;38.30;26.00;;;;;;;;;;5074391;28;20871;-76
2022/03/17 02:05:47;;;;;;;34.37;25.47;;;;;;;;;;5073969;28;20491;-75
2022/03/17 02:08:14;;;;;;;34.10;25.53;;;;;;;;;;5073968;28;20889;-75
2022/03/17 02:13:25;;;;;;;34.67;25.03;;;;;;;;;;5074203;28;20411;-75
2022/03/17 02:15:55;;;;;;;35.17;27.20;;;;;;;;;;5073852;28;20400;-75
2022/03/17 02:18:21;;;;;;;41.57;26.73;;;;;;;;;;5073939;28;20396;-77
2022/03/17 02:20:48;;;;;;;36.73;25.20;;;;;;;;;;5072531;28;20936;-75
2022/03/17 02:26:00;;;;;;;35.53;25.70;;;;;;;;;;5033855;28;20417;-75
2022/03/17 02:28:26;;;;;;;34.00;25.70;;;;;;;;;;5034143;28;20395;-75
2022/03/17 02:30:52;;;;;;;32.97;24.90;;;;;;;;;;5034225;28;20417;-75
2022/03/17 02:33:19;;;;;;;34.20;24.47;;;;;;;;;;5034049;28;20418;-75
2022/03/17 02:35:47;;;;;;;34.87;26.30;;;;;;;;;;5033970;28;20959;-75
2022/03/17 02:38:14;;;;;;;34.87;25.20;;;;;;;;;;5025639;28;20764;-76
2022/03/17 02:40:42;;;;;;;40.53;26.47;;;;;;;;;;5033636;28;20409;-75
2022/03/17 02:43:08;;;;;;;31.90;23.07;;;;;;;;;;5045100;28;20422;-76
2022/03/17 02:45:35;;;;;;;33.43;25.23;;;;;;;;;;5033971;28;20541;-75
2022/03/17 02:48:01;;;;;;;36.23;25.80;;;;;;;;;;5034076;28;20406;-76
2022/03/17 02:50:27;;;;;;;38.97;25.90;;;;;;;;;;5033873;28;20441;-76
2022/03/17 02:52:54;;;;;;;35.10;26.43;;;;;;;;;;5033519;28;20473;-76
2022/03/17 02:55:20;;;;;;;35.53;25.03;;;;;;;;;;5033668;28;20412;-76
2022/03/17 02:57:46;;;;;;;37.00;26.70;;;;;;;;;;5033508;28;20449;-76
2022/03/17 03:00:14;;;;;;;35.93;26.47;;;;;;;;;;5033392;28;20421;-75
2022/03/17 03:02:40;;;;;;;32.53;24.53;;;;;;;;;;5033329;28;20821;-75
2022/03/17 03:05:07;;;;;;;35.30;25.80;;;;;;;;;;5033633;28;20796;-76
2022/03/17 03:07:34;;;;;;;34.53;25.40;;;;;;;;;;5033420;28;20441;-76
2022/03/17 03:10:00;;;;;;;35.07;25.60;;;;;;;;;;5033283;28;20460;-76
2022/03/17 03:12:26;;;;;;;33.40;25.20;;;;;;;;;;5033132;28;20430;-76
2022/03/17 03:14:52;;;;;;;32.80;25.40;;;;;;;;;;5033260;28;20472;-75
2022/03/17 03:17:21;;;;;;;33.30;24.70;;;;;;;;;;5033305;28;20398;-75
2022/03/17 03:19:47;;;;;;;36.87;26.63;;;;;;;;;;5033232;28;20756;-75
2022/03/17 03:22:13;;;;;;;33.07;24.77;;;;;;;;;;5041595;28;20454;-76
2022/03/17 03:24:39;;;;;;;40.23;27.10;;;;;;;;;;5033478;28;20446;-76
2022/03/17 03:27:05;;;;;;;33.40;26.37;;;;;;;;;;5033403;28;20402;-76
2022/03/17 03:29:31;;;;;;;33.50;25.47;;;;;;;;;;5032959;28;20421;-75
2022/03/17 03:32:03;;;;;;;36.77;27.03;;;;;;;;;;5031777;28;20410;-75
2022/03/17 03:34:30;;;;;;;37.80;26.63;;;;;;;;;;5033214;28;20771;-76
2022/03/17 03:39:41;;;;;;;35.63;26.70;;;;;;;;;;5033120;28;20479;-75
2022/03/17 03:42:07;;;;;;;38.40;28.00;;;;;;;;;;5033164;28;20433;-76
2022/03/17 03:44:34;;;;;;;32.47;24.57;;;;;;;;;;5033544;28;20456;-76
2022/03/17 03:47:00;;;;;;;32.00;25.40;;;;;;;;;;5033465;28;20417;-76
2022/03/17 03:49:26;;;;;;;36.27;26.43;;;;;;;;;;5032931;28;20421;-76
2022/03/17 03:51:52;;;;;;;34.80;26.93;;;;;;;;;;5033522;28;20493;-76
2022/03/17 03:54:18;;;;;;;35.90;25.67;;;;;;;;;;5033012;28;20398;-76
2022/03/17 03:56:48;;;;;;;35.83;26.00;;;;;;;;;;5033265;28;20962;-76
2022/03/17 03:59:21;;;;;;;34.10;25.07;;;;;;;;;;5033029;28;20417;-76
2022/03/17 04:01:48;;;;;;;41.03;26.07;;;;;;;;;;5032769;28;20390;-76
2022/03/17 04:04:18;;;;;;;40.77;28.70;;;;;;;;;;5032606;28;20459;-76
2022/03/17 04:06:45;;;;;;;38.53;27.70;;;;;;;;;;5032991;28;20413;-76
2022/03/17 04:09:12;;;;;;;35.57;26.43;;;;;;;;;;5023018;28;20435;-76
2022/03/17 04:11:39;;;;;;;37.40;27.00;;;;;;;;;;5013273;28;20403;-76
2022/03/17 04:14:06;;;;;;;40.23;26.87;;;;;;;;;;5021203;28;20513;-76
2022/03/17 04:16:32;;;;;;;33.93;24.70;;;;;;;;;;5032458;28;20406;-76
2022/03/17 04:18:58;;;;;;;37.47;27.63;;;;;;;;;;5032826;28;20808;-76
2022/03/17 04:21:24;;;;;;;36.20;25.93;;;;;;;;;;5032594;28;20439;-76
2022/03/17 04:23:50;;;;;;;36.63;26.87;;;;;;;;;;5032338;28;20486;-76
2022/03/17 04:26:16;;;;;;;34.77;25.90;;;;;;;;;;5032877;28;20779;-76
2022/03/17 04:28:43;;;;;;;38.07;27.77;;;;;;;;;;5032736;28;20883;-76
2022/03/17 04:31:09;;;;;;;37.57;27.00;;;;;;;;;;5032924;28;20811;-76
2022/03/17 04:33:36;;;;;;;39.30;28.33;;;;;;;;;;5037130;28;20422;-76
2022/03/17 04:36:05;;;;;;;36.13;26.73;;;;;;;;;;5036294;28;20398;-76
2022/03/17 04:38:32;;;;;;;35.53;27.27;;;;;;;;;;5036369;28;20403;-76
2022/03/17 04:40:58;;;;;;;39.30;27.60;;;;;;;;;;5036261;28;20759;-76
2022/03/17 04:43:24;;;;;;;36.60;28.13;;;;;;;;;;5036082;28;20764;-76
2022/03/17 04:45:50;;;;;;;43.87;28.83;;;;;;;;;;5036434;28;20453;-76
2022/03/17 04:48:16;;;;;;;38.60;27.90;;;;;;;;;;5036104;28;20461;-76
2022/03/17 04:50:42;;;;;;;37.50;27.90;;;;;;;;;;5035820;28;20406;-76
2022/03/17 04:53:27;;;;;;;37.80;26.40;;;;;;;;;;5035769;28;20458;-76
2022/03/17 04:55:57;;;;;;;37.47;27.47;;;;;;;;;;5028120;28;20457;-76
2022/03/17 04:58:23;;;;;;;34.30;25.93;;;;;;;;;;5020844;28;20439;-76
2022/03/17 05:00:52;;;;;;;40.73;28.40;;;;;;;;;;5017662;28;20436;-76
2022/03/17 05:03:19;;;;;;;39.03;28.60;;;;;;;;;;5035745;28;20556;-76
2022/03/17 05:05:45;;;;;;;40.70;27.97;;;;;;;;;;5034621;28;20522;-76
2022/03/17 05:08:11;;;;;;;36.33;26.67;;;;;;;;;;5036084;28;20415;-76
2022/03/17 05:10:37;;;;;;;36.43;26.80;;;;;;;;;;5036964;28;20410;-76
2022/03/17 05:13:07;;;;;;;42.13;26.70;;;;;;;;;;5036385;28;20792;-76
2022/03/17 05:15:34;;;;;;;41.43;28.07;;;;;;;;;;5035836;28;20464;-76
2022/03/17 05:18:00;;;;;;;39.07;27.40;;;;;;;;;;5035759;28;20407;-76
2022/03/17 05:20:26;;;;;;;43.37;29.27;;;;;;;;;;5035743;28;20457;-76
2022/03/17 05:22:52;;;;;;;41.30;29.07;;;;;;;;;;5035844;28;20460;-76
2022/03/17 05:25:19;;;;;;;34.73;27.20;;;;;;;;;;5035391;28;20450;-76
2022/03/17 05:27:46;;;;;;;35.60;26.50;;;;;;;;;;5035694;28;20428;-76
2022/03/17 05:30:16;;;;;;;39.87;26.97;;;;;;;;;;5035673;28;20398;-76
2022/03/17 05:32:42;;;;;;;38.20;27.67;;;;;;;;;;5035231;28;20540;-75
2022/03/17 05:35:09;;;;;;;36.10;27.83;;;;;;;;;;5035392;28;20409;-76
2022/03/17 05:37:35;;;;;;;39.90;27.47;;;;;;;;;;5035382;28;20410;-76
2022/03/17 05:40:02;;;;;;;39.73;28.77;;;;;;;;;;5035130;28;20399;-76
2022/03/17 05:42:28;;;;;;;37.80;27.57;;;;;;;;;;5035298;28;20426;-76
2022/03/17 05:44:55;;;;;;;39.70;27.93;;;;;;;;;;5034347;28;20454;-76
2022/03/17 05:47:21;;;;;;;41.33;28.13;;;;;;;;;;5035430;28;20402;-76
2022/03/17 05:49:47;;;;;;;39.37;28.30;;;;;;;;;;5034955;28;20402;-76
2022/03/17 05:52:14;;;;;;;36.73;26.00;;;;;;;;;;5035015;28;20788;-76
2022/03/17 05:54:40;;;;;;;39.17;27.47;;;;;;;;;;5035038;28;20418;-76
2022/03/17 05:57:06;;;;;;;41.10;28.53;;;;;;;;;;5034799;28;20410;-76
2022/03/17 05:59:32;;;;;;;37.33;27.63;;;;;;;;;;5035080;28;20406;-76
2022/03/17 06:01:58;;;;;;;37.23;28.30;;;;;;;;;;5035060;28;20778;-76
2022/03/17 06:04:24;;;;;;;40.50;29.40;;;;;;;;;;5034746;28;20457;-76
2022/03/17 06:06:51;;;;;;;44.63;29.90;;;;;;;;;;5034739;28;20402;-76
2022/03/17 06:09:17;;;;;;;36.97;27.50;;;;;;;;;;5034495;28;20407;-76
2022/03/17 06:11:43;;;;;;;41.97;27.30;;;;;;;;;;5030687;28;20830;-76
2022/03/17 06:14:09;;;;;;;37.57;28.50;;;;;;;;;;5031525;28;20456;-76
2022/03/17 06:16:37;;;;;;;37.57;27.50;;;;;;;;;;5034608;28;20430;-76
2022/03/17 06:19:04;;;;;;;41.53;28.50;;;;;;;;;;5034693;28;20413;-76
2022/03/17 06:21:30;;;;;;;44.73;28.40;;;;;;;;;;5032966;28;20437;-75
2022/03/17 06:23:56;;;;;;;38.40;26.77;;;;;;;;;;5029576;28;20557;-76
2022/03/17 06:26:22;;;;;;;40.28;31.77;;;;;;;;;;5031906;28;20434;-76
2022/03/17 06:28:48;;;;;;;37.30;29.40;;;;;;;;;;5033289;28;20222;-75
2022/03/17 06:31:14;;;;;;;42.50;27.97;;;;;;;;;;5034111;28;20406;-76
2022/03/17 06:33:40;;;;;;;37.00;28.65;;;;;;;;;;5035185;28;20413;-75
2022/03/17 06:36:06;;;;;;;40.97;29.70;;;;;;;;;;5035023;28;20172;-75
2022/03/17 06:38:32;;;;;;;37.10;28.20;;;;;;;;;;5034284;28;21002;-76
2022/03/17 06:40:58;;;;;;;38.70;26.97;;;;;;;;;;5033805;28;20772;-76
2022/03/17 06:43:24;;;;;;;38.13;28.93;;;;;;;;;;5030562;28;20804;-75
2022/03/17 06:45:50;;;;;;;41.20;27.53;;;;;;;;;;5034024;28;20445;-75
2022/03/17 06:48:16;;;;;;;39.17;27.60;;;;;;;;;;5033922;28;20434;-76
2022/03/17 06:50:42;;;;;;;34.90;25.40;;;;;;;;;;5034147;28;20399;-75
2022/03/17 06:53:08;;;;;;;36.65;30.20;;;;;;;;;;5032756;28;20464;-76
2022/03/17 06:55:34;;;;;;;42.53;27.73;;;;;;;;;;5034113;28;20679;-76
2022/03/17 06:58:04;;;;;;;37.70;27.67;;;;;;;;;;5034650;28;20468;-75
2022/03/17 07:00:30;;;;;;;38.47;27.27;;;;;;;;;;5030555;28;20453;-75
2022/03/17 07:02:56;;;;;;;38.20;28.40;;;;;;;;;;5036929;28;20451;-76
2022/03/17 07:05:22;;;;;;;33.93;25.57;;;;;;;;;;5029238;28;20443;-76
2022/03/17 07:07:49;;;;;;;38.63;26.67;;;;;;;;;;5040237;28;20459;-76
2022/03/17 07:10:17;;;;;;;36.37;26.57;;;;;;;;;;5038718;28;20407;-76
2022/03/17 07:12:44;;;;;;;41.40;26.73;;;;;;;;;;5030662;28;20541;-76
2022/03/17 07:15:10;;;;;;;36.10;26.90;;;;;;;;;;5033236;28;20417;-76
2022/03/17 07:17:40;;;;;;;32.70;25.80;;;;;;;;;;5032769;28;20180;-76
2022/03/17 07:20:13;;;;;;;38.03;27.93;;;;;;;;;;5033403;28;20929;-76
2022/03/17 07:22:40;;;;;;;38.77;27.30;;;;;;;;;;5032214;28;20539;-76
2022/03/17 07:25:06;;;;;;;36.63;30.35;;;;;;;;;;5031891;28;20429;-76
2022/03/17 07:27:36;;;;;;;38.00;27.73;;;;;;;;;;5033399;28;20302;-76
2022/03/17 07:30:02;;;;;;;35.42;27.73;;;;;;;;;;5033259;28;20467;-75
2022/03/17 07:32:29;;;;;;;35.75;29.40;;;;;;;;;;5032090;28;20424;-75
2022/03/17 07:34:56;;;;;;;39.47;30.07;;;;;;;;;;5032980;28;20464;-76
2022/03/17 07:37:22;;;;;;;41.23;28.50;;;;;;;;;;5030445;28;20414;-77
2022/03/17 07:39:48;;;;;;;35.67;27.53;;;;;;;;;;5027345;28;20425;-76
2022/03/17 07:42:14;;;;;;;33.53;25.90;;;;;;;;;;5024845;28;20454;-76
2022/03/17 07:44:40;;;;;;;33.60;25.00;;;;;;;;;;5025626;28;20454;-76
2022/03/17 07:47:08;;;;;;;37.40;26.20;;;;;;;;;;5042541;28;20410;-76
2022/03/17 07:49:35;;;;;;;36.50;24.70;;;;;;;;;;5026197;28;20838;-75
2022/03/17 07:52:01;;;;;;;37.67;25.80;;;;;;;;;;5029897;28;20414;-76
2022/03/17 07:54:27;;;;;;;33.03;25.50;;;;;;;;;;5030350;28;20422;-74
2022/03/17 07:56:54;;;;;;;33.33;23.87;;;;;;;;;;5028950;28;20503;-75
2022/03/17 07:59:20;;;;;;;32.57;23.97;;;;;;;;;;5029192;28;20422;-74
2022/03/17 08:01:46;;;;;;;32.70;25.07;;;;;;;;;;5024769;28;20434;-75
2022/03/17 08:04:12;;;;;;;38.43;25.87;;;;;;;;;;5028684;28;20491;-75
2022/03/17 08:06:38;;;;;;;33.47;25.87;;;;;;;;;;5029292;28;20942;-75
2022/03/17 08:09:04;;;;;;;33.70;26.47;;;;;;;;;;5031151;28;20419;-75
2022/03/17 08:11:31;;;;;;;36.70;28.10;;;;;;;;;;5030298;28;20426;-75
2022/03/17 08:13:57;;;;;;;30.47;23.67;;;;;;;;;;5028857;28;20483;-75
2022/03/17 08:16:23;;;;;;;32.93;24.13;;;;;;;;;;5028299;28;20792;-76
2022/03/17 08:18:49;;;;;;;38.43;24.67;;;;;;;;;;5032332;28;20441;-76
2022/03/17 08:21:15;;;;;;;38.37;25.90;;;;;;;;;;5034285;28;20408;-76
2022/03/17 08:23:42;;;;;;;30.70;25.30;;;;;;;;;;5042333;28;20461;-75
2022/03/17 08:26:08;;;;;;;34.30;25.60;;;;;;;;;;5033618;28;20418;-75
2022/03/17 08:28:34;;;;;;;37.90;23.70;;;;;;;;;;5032019;28;20472;-75
2022/03/17 08:31:00;;;;;;;31.73;23.80;;;;;;;;;;5028718;28;20425;-74
2022/03/17 08:33:26;;;;;;;41.80;24.00;;;;;;;;;;5062630;23;20485;-76
2022/03/17 08:35:52;;;;;;;34.20;24.17;;;;;;;;;;5054023;28;20417;-75
2022/03/17 08:38:18;;;;;;;35.30;23.00;;;;;;;;;;5045030;28;21088;-77
2022/03/17 08:40:45;;;;;;;29.95;23.17;;;;;;;;;;5045750;28;20499;-77
2022/03/17 08:43:12;;;;;;;33.30;25.43;;;;;;;;;;5055568;28;20191;-76
2022/03/17 08:51:09;;;;;;;29.57;23.33;;;;;;;;;;5038448;28;20796;-77
2022/03/17 08:53:35;;;;;;;27.30;20.30;;;;;;;;;;5052569;28;20437;-78
2022/03/17 08:56:02;;;;;;;30.10;22.23;;;;;;;;;;5054177;28;20500;-77
2022/03/17 08:58:29;;;;;;;29.77;22.83;;;;;;;;;;5055178;28;20417;-77
2022/03/17 09:00:55;;;;;;;29.83;22.00;;;;;;;;;;5053595;28;20444;-78
2022/03/17 09:03:21;;;;;;;27.67;21.70;;;;;;;;;;5056330;28;20433;-77
2022/03/17 09:05:47;;;;;;;32.40;22.70;;;;;;;;;;5056499;28;20457;-77
2022/03/17 09:08:13;;;;;;;31.00;22.10;;;;;;;;;;5059063;28;20417;-77
2022/03/17 09:10:40;;;;;;;31.97;21.23;;;;;;;;;;5047415;28;20913;-78
2022/03/17 09:13:10;;;;;;;27.80;21.13;;;;;;;;;;5056235;28;20444;-77
2022/03/17 09:15:37;;;;;;;28.70;22.90;;;;;;;;;;5054270;28;20417;-78
2022/03/17 09:18:04;;;;;;;28.00;22.10;;;;;;;;;;5054040;28;20433;-77
2022/03/17 09:20:30;;;;;;;33.17;23.70;;;;;;;;;;5050178;28;20445;-77
2022/03/17 09:22:56;;;;;;;31.50;23.30;;;;;;;;;;5054801;28;20445;-76
2022/03/17 09:25:26;;;;;;;32.08;24.70;;;;;;;;;;5049211;28;20439;-77
2022/03/17 09:27:52;;;;;;;32.67;24.40;;;;;;;;;;5054149;28;20593;-77
2022/03/17 09:30:18;;;;;;;30.70;22.33;;;;;;;;;;5050245;28;20514;-77
2022/03/17 09:32:45;;;;;;;30.07;23.13;;;;;;;;;;5052325;28;20422;-77
2022/03/17 09:35:11;;;;;;;31.63;25.03;;;;;;;;;;5050158;28;20421;-76
2022/03/17 09:37:37;;;;;;;33.00;24.23;;;;;;;;;;5052981;28;20416;-76
2022/03/17 09:40:04;;;;;;;36.73;22.30;;;;;;;;;;5052220;28;20171;-76
2022/03/17 09:42:30;;;;;;;27.07;21.30;;;;;;;;;;5051549;28;20821;-76
2022/03/17 09:44:56;;;;;;;29.43;21.33;;;;;;;;;;5050723;28;20515;-77
2022/03/17 09:47:27;;;;;;;28.77;22.93;;;;;;;;;;5039086;28;20409;-76
2022/03/17 09:49:54;;;;;;;27.20;20.60;;;;;;;;;;5050228;28;20403;-75
2022/03/17 09:52:21;;;;;;;29.63;21.33;;;;;;;;;;5052708;28;20453;-77
2022/03/17 09:54:47;;;;;;;30.63;22.60;;;;;;;;;;5049232;28;20979;-77
2022/03/17 09:57:17;;;;;;;30.30;20.43;;;;;;;;;;5048141;28;20429;-77
2022/03/17 09:59:44;;;;;;;26.15;21.48;;;;;;;;;;5049725;28;20431;-76
2022/03/17 10:02:12;;;;;;;26.67;22.23;;;;;;;;;;5050174;28;20679;-77
2022/03/17 10:04:43;;;;;;;28.70;20.23;;;;;;;;;;5052509;28;20449;-76
2022/03/17 10:07:09;;;;;;;28.73;20.43;;;;;;;;;;5047237;28;20940;-77
2022/03/17 10:09:35;;;;;;;30.58;23.23;;;;;;;;;;5046756;28;20423;-76
2022/03/17 10:12:03;;;;;;;34.20;24.37;;;;;;;;;;5045305;28;20547;-75
2022/03/17 10:14:36;;;;;;;27.07;22.67;;;;;;;;;;5045881;28;20865;-76
2022/03/17 10:17:04;;;;;;;27.30;20.93;;;;;;;;;;5052949;28;20428;-75
2022/03/17 10:19:34;;;;;;;29.83;23.27;;;;;;;;;;5051781;28;20421;-76
2022/03/17 10:22:10;;;;;;;29.37;22.57;;;;;;;;;;5051034;28;20417;-76
2022/03/17 10:24:37;;;;;;;26.43;21.60;;;;;;;;;;5053835;28;20898;-76
2022/03/17 10:27:04;;;;;;;31.33;20.90;;;;;;;;;;5053817;28;20422;-76
2022/03/17 10:29:30;;;;;;;42.83;33.10;;;;;;;;;;5046415;28;20462;-77
2022/03/17 10:32:04;;;;;;;34.57;21.20;;;;;;;;;;5050373;28;20173;-77
2022/03/17 10:34:48;;;;;;;24.00;18.80;;;;;;;;;;5053386;28;20458;-77
2022/03/17 10:37:24;;;;;;;28.10;21.07;;;;;;;;;;5052976;28;20803;-76
2022/03/17 10:39:51;;;;;;;27.70;20.57;;;;;;;;;;5048822;28;20421;-77
2022/03/17 10:42:19;;;;;;;27.93;20.63;;;;;;;;;;5049855;28;20409;-78
2022/03/17 10:44:46;;;;;;;28.83;22.87;;;;;;;;;;5051812;28;20515;-77
2022/03/17 10:47:13;;;;;;;31.60;21.10;;;;;;;;;;5053893;28;20418;-76
2022/03/17 10:49:39;;;;;;;26.70;20.20;;;;;;;;;;5056611;28;20413;-76
2022/03/17 10:52:05;;;;;;;35.13;22.30;;;;;;;;;;5050072;28;20471;-76
2022/03/17 10:54:32;;;;;;;35.13;21.60;;;;;;;;;;5052581;28;20441;-75
2022/03/17 10:57:06;;;;;;;30.67;22.73;;;;;;;;;;5049792;28;20414;-76
2022/03/17 10:59:42;;;;;;;28.13;21.00;;;;;;;;;;5049809;28;20760;-77
2022/03/17 11:02:08;;;;;;;27.10;20.60;;;;;;;;;;5048532;28;20409;-76
2022/03/17 11:04:35;;;;;;;26.87;20.63;;;;;;;;;;5047355;28;20461;-77
2022/03/17 11:07:02;;;;;;;32.10;22.50;;;;;;;;;;5049640;28;20414;-78
2022/03/17 11:09:28;;;;;;;29.00;23.77;;;;;;;;;;5047135;28;20426;-76
2022/03/17 11:11:54;;;;;;;30.03;21.60;;;;;;;;;;5051421;28;20417;-77
2022/03/17 11:14:23;;;;;;;26.10;20.67;;;;;;;;;;5050584;28;20437;-77
2022/03/17 11:16:54;;;;;;;30.50;22.40;;;;;;;;;;5044926;28;20576;-77
2022/03/17 11:19:21;;;;;;;30.40;22.73;;;;;;;;;;5045917;28;20409;-76
2022/03/17 11:21:49;;;;;;;26.57;21.60;;;;;;;;;;5048832;28;20414;-76
2022/03/17 11:24:19;;;;;;;27.90;21.87;;;;;;;;;;5050401;28;20464;-76
2022/03/17 11:26:46;;;;;;;28.50;22.70;;;;;;;;;;5052998;28;20410;-76
2022/03/17 11:29:13;;;;;;;31.77;21.73;;;;;;;;;;5055330;28;20417;-77
2022/03/17 11:32:00;;;;;;;33.00;21.80;;;;;;;;;;5053148;28;20401;-77
2022/03/17 11:34:38;;;;;;;26.57;20.90;;;;;;;;;;5052202;28;20464;-77
2022/03/17 11:37:26;;;;;;;30.53;23.00;;;;;;;;;;5052462;28;20931;-77
2022/03/17 11:39:53;;;;;;;29.65;22.65;;;;;;;;;;5050694;28;20967;-77
2022/03/17 11:42:32;;;;;;;33.60;21.90;;;;;;;;;;5051566;28;20186;-77
2022/03/17 11:45:02;;;;;;;23.70;20.50;;;;;;;;;;5052215;28;20460;-77
2022/03/17 11:47:29;;;;;;;24.83;20.03;;;;;;;;;;5051762;28;20504;-77
2022/03/17 11:49:55;;;;;;;32.37;22.90;;;;;;;;;;5050218;28;20421;-76
2022/03/17 11:52:21;;;;;;;28.57;21.17;;;;;;;;;;5042950;28;20424;-75
2022/03/17 11:54:47;;;;;;;31.27;22.03;;;;;;;;;;5053481;28;20439;-76
2022/03/17 11:57:14;;;;;;;35.50;22.10;;;;;;;;;;5051222;28;20440;-76
2022/03/17 11:59:55;;;;;;;31.85;21.65;;;;;;;;;;5043348;28;20519;-75
2022/03/17 12:02:28;;;;;;;28.37;20.83;;;;;;;;;;5048952;28;20178;-75
2022/03/17 12:04:54;;;;;;;39.20;21.40;;;;;;;;;;5050048;28;20557;-74
2022/03/17 12:07:20;;;;;;;28.30;21.47;;;;;;;;;;5051073;28;20744;-74
2022/03/17 12:09:47;;;;;;;33.13;21.47;;;;;;;;;;5051107;28;20897;-75
2022/03/17 12:12:17;;;;;;;29.40;22.60;;;;;;;;;;5046349;28;20428;-74
2022/03/17 12:14:48;;;;;;;30.77;21.97;;;;;;;;;;5050061;28;20430;-76
2022/03/17 12:17:16;;;;;;;29.27;22.20;;;;;;;;;;5051320;28;20529;-75
2022/03/17 12:19:48;;;;;;;29.57;22.27;;;;;;;;;;5045823;28;20471;-76
2022/03/17 12:22:39;;;;;;;28.90;22.37;;;;;;;;;;5046430;28;20413;-74
2022/03/17 12:25:21;;;;;;;26.70;20.90;;;;;;;;;;5048507;28;20489;-74
2022/03/17 12:27:59;;;;;;;33.70;22.00;;;;;;;;;;5046812;28;20413;-75
2022/03/17 12:30:26;;;;;;;27.73;21.57;;;;;;;;;;5044060;28;20422;-74
2022/03/17 12:32:53;;;;;;;29.27;22.10;;;;;;;;;;5051392;28;20441;-74
2022/03/17 12:35:23;;;;;;;28.03;22.17;;;;;;;;;;5051241;28;20401;-75
2022/03/17 12:37:50;;;;;;;36.50;24.50;;;;;;;;;;5045749;28;20448;-75
2022/03/17 12:40:20;;;;;;;30.97;22.37;;;;;;;;;;5049493;28;20497;-75
2022/03/17 12:42:50;;;;;;;34.87;23.73;;;;;;;;;;5049388;28;20467;-76
2022/03/17 12:45:17;;;;;;;27.17;21.07;;;;;;;;;;5051696;28;20476;-75
2022/03/17 12:47:46;;;;;;;32.43;21.40;;;;;;;;;;5045538;28;20414;-75
2022/03/17 12:50:18;;;;;;;35.33;23.20;;;;;;;;;;5049331;28;20432;-74
2022/03/17 12:52:44;;;;;;;31.30;22.43;;;;;;;;;;5048985;28;20477;-78
2022/03/17 12:55:12;;;;;;;31.73;23.37;;;;;;;;;;5046748;28;20418;-77
2022/03/17 12:57:39;;;;;;;29.60;23.13;;;;;;;;;;5048236;28;20414;-76
2022/03/17 13:00:06;;;;;;;38.80;23.10;;;;;;;;;;5052198;28;20447;-75
2022/03/17 13:02:32;;;;;;;36.87;22.57;;;;;;;;;;5049334;28;20418;-76
2022/03/17 13:06:52;;;;;;;31.83;22.47;;;;;;;;;;5049869;28;20460;-76
2022/03/17 13:07:46;;;;;;;28.87;22.97;;;;;;;;;;5049171;28;20414;-75
2022/03/17 13:10:12;;;;;;;30.50;24.67;;;;;;;;;;5052410;28;20417;-75
2022/03/17 13:15:26;;;;;;;31.70;23.60;;;;;;;;;;5050120;28;20401;-75
2022/03/17 13:18:01;;;;;;;34.50;22.90;;;;;;;;;;5050543;28;20936;-76
2022/03/17 13:20:27;;;;;;;30.77;23.67;;;;;;;;;;5051637;28;20459;-76
2022/03/17 13:23:04;;;;;;;32.43;25.17;;;;;;;;;;5054554;28;20829;-77
2022/03/17 13:25:31;;;;;;;35.30;24.43;;;;;;;;;;5054249;28;20500;-76
2022/03/17 13:28:07;;;;;;;33.40;25.50;;;;;;;;;;5053019;28;20410;-76
2022/03/17 13:30:34;;;;;;;39.87;25.43;;;;;;;;;;5038388;28;20416;-76
2022/03/17 13:33:01;;;;;;;37.60;23.93;;;;;;;;;;5052370;28;20535;-76
2022/03/17 13:35:27;;;;;;;33.03;22.67;;;;;;;;;;5046649;28;20409;-76
2022/03/17 13:38:04;;;;;;;26.00;21.53;;;;;;;;;;5050208;28;20406;-76
2022/03/17 13:40:40;;;;;;;29.40;23.60;;;;;;;;;;5051024;28;20408;-75
2022/03/17 13:43:07;;;;;;;35.87;20.60;;;;;;;;;;5046149;28;20437;-76
2022/03/17 13:45:37;;;;;;;31.23;22.60;;;;;;;;;;5048147;28;20877;-75
2022/03/17 13:48:04;;;;;;;31.77;22.73;;;;;;;;;;5050959;28;20858;-76
2022/03/17 13:50:30;;;;;;;30.23;22.73;;;;;;;;;;5049870;28;20460;-75
2022/03/17 13:52:59;;;;;;;29.30;22.50;;;;;;;;;;5050076;28;20491;-76
2022/03/17 13:55:55;;;;;;;31.63;23.00;;;;;;;;;;5053234;28;20426;-76
2022/03/17 13:58:22;;;;;;;33.43;22.97;;;;;;;;;;5046501;28;20537;-76
2022/03/17 14:00:50;;;;;;;27.77;20.10;;;;;;;;;;5048393;28;20505;-75
2022/03/17 14:03:21;;;;;;;27.70;20.70;;;;;;;;;;5031186;28;21063;-76
2022/03/17 14:06:06;;;;;;;34.03;20.83;;;;;;;;;;5057424;28;20450;-76
2022/03/17 14:08:33;;;;;;;28.50;19.80;;;;;;;;;;5046847;28;20402;-75
2022/03/17 14:11:02;;;;;;;26.50;19.33;;;;;;;;;;5049365;28;20442;-75
2022/03/17 14:13:28;;;;;;;26.83;19.80;;;;;;;;;;5050956;28;20456;-75
2022/03/17 14:15:54;;;;;;;50.73;20.50;;;;;;;;;;5052431;28;20401;-75
2022/03/17 14:18:21;;;;;;;30.90;20.40;;;;;;;;;;5054020;28;20838;-76
2022/03/17 14:20:47;;;;;;;30.93;20.60;;;;;;;;;;5051646;28;20398;-75
2022/03/17 14:25:59;;;;;;;30.40;21.03;;;;;;;;;;5048860;28;20499;-75
2022/03/17 14:28:25;;;;;;;28.23;20.17;;;;;;;;;;5052256;28;20414;-76
2022/03/17 14:30:51;;;;;;;28.87;22.07;;;;;;;;;;5052131;28;20464;-75
2022/03/17 14:33:17;;;;;;;31.47;19.03;;;;;;;;;;5048562;28;20446;-75
2022/03/17 14:35:43;;;;;;;33.60;21.97;;;;;;;;;;5046991;28;20504;-76
2022/03/17 14:38:10;;;;;;;28.73;20.47;;;;;;;;;;5052124;28;20471;-75
2022/03/17 14:40:36;;;;;;;28.90;21.63;;;;;;;;;;5052346;28;20421;-75